sensor_id;sensor_type;location;lat;lon;timestamp;temperature;humidity
41756;DHT22;27435;48.480;9.258;2023-12-14T00:01:11;5.00;99.00
41756;DHT22;27435;48.480;9.258;2023-12-14T00:03:40;5.10;99.00
41756;DHT22;27435;48.480;9.258;2023-12-14T00:06:08;5.10;99.00
41756;DHT22;27435;48.480;9.258;2023-12-14T00:08:33;5.20;99.00
41756;DHT22;27435;48.480;9.258;2023-12-14T00:11:09;5.40;99.00
41756;DHT22;27435;48.480;9.258;2023-12-14T00:13:35;5.30;99.00
41756;DHT22;27435;48.480;9.258;2023-12-14T00:16:02;5.20;99.00
41756;DHT22;27435;48.480;9.258;2023-12-14T00:18:28;5.30;99.00
41756;DHT22;27435;48.480;9.258;2023-12-14T00:20:53;5.50;99.00
41756;DHT22;27435;48.480;9.258;2023-12-14T00:23:20;5.40;99.00
41756;DHT22;27435;48.480;9.258;2023-12-14T00:25:45;5.30;99.00
41756;DHT22;27435;48.480;9.258;2023-12-14T00:28:11;5.40;99.00
41756;DHT22;27435;48.480;9.258;2023-12-14T00:30:37;5.40;99.00
41756;DHT22;27435;48.480;9.258;2023-12-14T00:33:02;5.30;99.00
41756;DHT22;27435;48.480;9.258;2023-12-14T00:35:28;5.50;99.00
41756;DHT22;27435;48.480;9.258;2023-12-14T00:37:54;5.40;99.00
41756;DHT22;27435;48.480;9.258;2023-12-14T00:40:19;5.20;99.00
41756;DHT22;27435;48.480;9.258;2023-12-14T00:42:45;5.20;99.00
41756;DHT22;27435;48.480;9.258;2023-12-14T00:45:11;5.30;99.00
41756;DHT22;27435;48.480;9.258;2023-12-14T00:47:37;5.10;99.00
41756;DHT22;27435;48.480;9.258;2023-12-14T00:50:02;5.30;99.00
41756;DHT22;27435;48.480;9.258;2023-12-14T00:52:28;5.30;99.00
41756;DHT22;27435;48.480;9.258;2023-12-14T00:54:54;5.40;99.00
41756;DHT22;27435;48.480;9.258;2023-12-14T00:57:20;5.20;99.00
41756;DHT22;27435;48.480;9.258;2023-12-14T00:59:45;5.20;99.00
41756;DHT22;27435;48.480;9.258;2023-12-14T01:02:11;5.20;99.00
41756;DHT22;27435;48.480;9.258;2023-12-14T01:04:37;5.20;99.00
41756;DHT22;27435;48.480;9.258;2023-12-14T01:07:03;5.10;99.00
41756;DHT22;27435;48.480;9.258;2023-12-14T01:09:29;5.20;99.00
41756;DHT22;27435;48.480;9.258;2023-12-14T01:11:55;5.30;99.00
41756;DHT22;27435;48.480;9.258;2023-12-14T01:14:21;5.50;99.00
41756;DHT22;27435;48.480;9.258;2023-12-14T01:16:46;5.60;99.00
41756;DHT22;27435;48.480;9.258;2023-12-14T01:19:12;5.50;99.00
41756;DHT22;27435;48.480;9.258;2023-12-14T01:21:38;5.40;99.00
41756;DHT22;27435;48.480;9.258;2023-12-14T01:24:03;5.30;99.00
41756;DHT22;27435;48.480;9.258;2023-12-14T01:26:29;5.30;99.00
41756;DHT22;27435;48.480;9.258;2023-12-14T01:28:55;5.30;99.00
41756;DHT22;27435;48.480;9.258;2023-12-14T01:31:21;5.40;99.00
41756;DHT22;27435;48.480;9.258;2023-12-14T01:33:49;5.40;99.00
41756;DHT22;27435;48.480;9.258;2023-12-14T01:36:22;5.30;99.00
41756;DHT22;27435;48.480;9.258;2023-12-14T01:38:48;5.30;99.00
41756;DHT22;27435;48.480;9.258;2023-12-14T01:41:14;5.30;99.00
41756;DHT22;27435;48.480;9.258;2023-12-14T01:43:40;5.40;99.00
41756;DHT22;27435;48.480;9.258;2023-12-14T01:46:06;5.50;99.00
41756;DHT22;27435;48.480;9.258;2023-12-14T01:48:31;5.60;99.00
41756;DHT22;27435;48.480;9.258;2023-12-14T01:50:57;5.50;99.00
41756;DHT22;27435;48.480;9.258;2023-12-14T01:53:22;5.50;99.00
41756;DHT22;27435;48.480;9.258;2023-12-14T01:55:48;5.40;99.00
41756;DHT22;27435;48.480;9.258;2023-12-14T01:58:14;5.50;99.00
41756;DHT22;27435;48.480;9.258;2023-12-14T02:00:49;5.70;99.00
41756;DHT22;27435;48.480;9.258;2023-12-14T02:03:16;5.70;99.00
41756;DHT22;27435;48.480;9.258;2023-12-14T02:05:42;5.60;99.00
41756;DHT22;27435;48.480;9.258;2023-12-14T02:08:08;5.50;99.00
41756;DHT22;27435;48.480;9.258;2023-12-14T02:10:34;5.50;99.00
41756;DHT22;27435;48.480;9.258;2023-12-14T02:13:04;5.60;99.00
41756;DHT22;27435;48.480;9.258;2023-12-14T02:15:30;5.70;99.00
41756;DHT22;27435;48.480;9.258;2023-12-14T02:17:55;5.70;99.00
41756;DHT22;27435;48.480;9.258;2023-12-14T02:20:21;5.90;99.00
41756;DHT22;27435;48.480;9.258;2023-12-14T02:22:53;5.80;99.00
41756;DHT22;27435;48.480;9.258;2023-12-14T02:25:20;6.00;99.00
41756;DHT22;27435;48.480;9.258;2023-12-14T02:27:46;6.00;99.00
41756;DHT22;27435;48.480;9.258;2023-12-14T02:30:13;5.90;99.00
41756;DHT22;27435;48.480;9.258;2023-12-14T02:32:39;5.90;99.00
41756;DHT22;27435;48.480;9.258;2023-12-14T02:35:06;5.90;99.00
41756;DHT22;27435;48.480;9.258;2023-12-14T02:37:33;5.90;99.00
41756;DHT22;27435;48.480;9.258;2023-12-14T02:39:59;5.90;99.00
41756;DHT22;27435;48.480;9.258;2023-12-14T02:42:26;5.80;99.00
41756;DHT22;27435;48.480;9.258;2023-12-14T02:44:53;5.70;99.00
41756;DHT22;27435;48.480;9.258;2023-12-14T02:47:19;5.60;99.00
41756;DHT22;27435;48.480;9.258;2023-12-14T02:49:44;5.50;99.00
41756;DHT22;27435;48.480;9.258;2023-12-14T02:52:10;5.60;99.00
41756;DHT22;27435;48.480;9.258;2023-12-14T02:54:38;5.50;99.00
41756;DHT22;27435;48.480;9.258;2023-12-14T02:57:04;5.50;99.00
41756;DHT22;27435;48.480;9.258;2023-12-14T02:59:29;5.50;99.00
41756;DHT22;27435;48.480;9.258;2023-12-14T03:01:55;5.40;99.00
41756;DHT22;27435;48.480;9.258;2023-12-14T03:04:21;5.40;99.00
41756;DHT22;27435;48.480;9.258;2023-12-14T03:06:46;5.40;99.00
41756;DHT22;27435;48.480;9.258;2023-12-14T03:09:12;5.40;99.00
41756;DHT22;27435;48.480;9.258;2023-12-14T03:11:38;5.30;99.00
41756;DHT22;27435;48.480;9.258;2023-12-14T03:14:03;5.40;99.00
41756;DHT22;27435;48.480;9.258;2023-12-14T03:16:29;5.50;99.00
41756;DHT22;27435;48.480;9.258;2023-12-14T03:18:55;5.40;99.00
41756;DHT22;27435;48.480;9.258;2023-12-14T03:21:22;5.40;99.00
41756;DHT22;27435;48.480;9.258;2023-12-14T03:23:48;5.50;99.00
41756;DHT22;27435;48.480;9.258;2023-12-14T03:26:13;5.70;99.00
41756;DHT22;27435;48.480;9.258;2023-12-14T03:28:39;5.50;99.00
41756;DHT22;27435;48.480;9.258;2023-12-14T03:31:04;5.40;99.00
41756;DHT22;27435;48.480;9.258;2023-12-14T03:33:30;5.50;99.00
41756;DHT22;27435;48.480;9.258;2023-12-14T03:35:56;5.50;99.00
41756;DHT22;27435;48.480;9.258;2023-12-14T03:38:22;5.60;99.00
41756;DHT22;27435;48.480;9.258;2023-12-14T03:40:48;5.70;99.00
41756;DHT22;27435;48.480;9.258;2023-12-14T03:43:13;5.70;99.00
41756;DHT22;27435;48.480;9.258;2023-12-14T03:45:39;5.80;99.00
41756;DHT22;27435;48.480;9.258;2023-12-14T03:48:05;5.80;99.00
41756;DHT22;27435;48.480;9.258;2023-12-14T03:50:30;5.90;99.00
41756;DHT22;27435;48.480;9.258;2023-12-14T03:52:58;5.80;99.00
41756;DHT22;27435;48.480;9.258;2023-12-14T03:55:23;5.80;99.00
41756;DHT22;27435;48.480;9.258;2023-12-14T03:57:49;5.70;99.00
41756;DHT22;27435;48.480;9.258;2023-12-14T04:00:15;5.90;99.00
41756;DHT22;27435;48.480;9.258;2023-12-14T04:02:41;5.90;99.00
41756;DHT22;27435;48.480;9.258;2023-12-14T04:05:08;5.70;99.00
41756;DHT22;27435;48.480;9.258;2023-12-14T04:07:38;5.60;99.00
41756;DHT22;27435;48.480;9.258;2023-12-14T04:10:07;5.80;99.00
41756;DHT22;27435;48.480;9.258;2023-12-14T04:12:35;5.80;99.00
41756;DHT22;27435;48.480;9.258;2023-12-14T04:15:01;5.90;99.00
41756;DHT22;27435;48.480;9.258;2023-12-14T04:17:27;5.90;99.00
41756;DHT22;27435;48.480;9.258;2023-12-14T04:19:53;5.80;99.00
41756;DHT22;27435;48.480;9.258;2023-12-14T04:22:18;5.90;99.00
41756;DHT22;27435;48.480;9.258;2023-12-14T04:24:44;5.90;99.00
41756;DHT22;27435;48.480;9.258;2023-12-14T04:27:10;5.80;99.00
41756;DHT22;27435;48.480;9.258;2023-12-14T04:29:35;5.80;99.00
41756;DHT22;27435;48.480;9.258;2023-12-14T04:32:01;5.90;99.00
41756;DHT22;27435;48.480;9.258;2023-12-14T04:34:26;6.10;99.00
41756;DHT22;27435;48.480;9.258;2023-12-14T04:36:53;6.20;99.00
41756;DHT22;27435;48.480;9.258;2023-12-14T04:39:25;6.10;99.00
41756;DHT22;27435;48.480;9.258;2023-12-14T04:41:52;5.90;99.00
41756;DHT22;27435;48.480;9.258;2023-12-14T04:44:20;5.80;99.00
41756;DHT22;27435;48.480;9.258;2023-12-14T04:46:47;5.90;99.00
41756;DHT22;27435;48.480;9.258;2023-12-14T04:49:13;6.00;99.00
41756;DHT22;27435;48.480;9.258;2023-12-14T04:51:39;6.10;99.00
41756;DHT22;27435;48.480;9.258;2023-12-14T04:54:04;6.10;99.00
41756;DHT22;27435;48.480;9.258;2023-12-14T04:56:30;6.10;99.00
41756;DHT22;27435;48.480;9.258;2023-12-14T04:58:56;6.00;99.00
41756;DHT22;27435;48.480;9.258;2023-12-14T05:01:21;6.10;99.00
41756;DHT22;27435;48.480;9.258;2023-12-14T05:03:47;6.00;99.00
41756;DHT22;27435;48.480;9.258;2023-12-14T05:06:13;5.90;99.00
41756;DHT22;27435;48.480;9.258;2023-12-14T05:08:38;6.10;99.00
41756;DHT22;27435;48.480;9.258;2023-12-14T05:11:04;6.00;99.00
41756;DHT22;27435;48.480;9.258;2023-12-14T05:13:30;6.10;99.00
41756;DHT22;27435;48.480;9.258;2023-12-14T05:15:55;6.00;99.00
41756;DHT22;27435;48.480;9.258;2023-12-14T05:18:23;6.00;99.00
41756;DHT22;27435;48.480;9.258;2023-12-14T05:20:50;5.90;99.00
41756;DHT22;27435;48.480;9.258;2023-12-14T05:23:16;5.80;99.00
41756;DHT22;27435;48.480;9.258;2023-12-14T05:25:41;5.90;99.00
41756;DHT22;27435;48.480;9.258;2023-12-14T05:28:07;5.80;99.00
41756;DHT22;27435;48.480;9.258;2023-12-14T05:30:33;5.80;99.00
41756;DHT22;27435;48.480;9.258;2023-12-14T05:32:58;5.80;99.00
41756;DHT22;27435;48.480;9.258;2023-12-14T05:35:24;5.60;99.00
41756;DHT22;27435;48.480;9.258;2023-12-14T05:37:49;5.60;99.00
41756;DHT22;27435;48.480;9.258;2023-12-14T05:40:15;5.70;99.00
41756;DHT22;27435;48.480;9.258;2023-12-14T05:42:41;5.70;99.00
41756;DHT22;27435;48.480;9.258;2023-12-14T05:45:07;5.80;99.00
41756;DHT22;27435;48.480;9.258;2023-12-14T05:47:32;5.70;99.00
41756;DHT22;27435;48.480;9.258;2023-12-14T05:50:00;5.70;99.00
41756;DHT22;27435;48.480;9.258;2023-12-14T05:52:26;5.60;99.00
41756;DHT22;27435;48.480;9.258;2023-12-14T05:54:52;5.80;99.00
41756;DHT22;27435;48.480;9.258;2023-12-14T05:57:18;5.90;99.00
41756;DHT22;27435;48.480;9.258;2023-12-14T05:59:43;5.90;99.00
41756;DHT22;27435;48.480;9.258;2023-12-14T06:02:09;5.90;99.00
41756;DHT22;27435;48.480;9.258;2023-12-14T06:04:34;5.80;99.00
41756;DHT22;27435;48.480;9.258;2023-12-14T06:07:00;5.80;99.00
41756;DHT22;27435;48.480;9.258;2023-12-14T06:09:26;6.00;99.00
41756;DHT22;27435;48.480;9.258;2023-12-14T06:12:01;6.10;99.00
41756;DHT22;27435;48.480;9.258;2023-12-14T06:14:27;5.90;99.00
41756;DHT22;27435;48.480;9.258;2023-12-14T06:16:53;5.80;99.00
41756;DHT22;27435;48.480;9.258;2023-12-14T06:19:18;5.70;99.00
41756;DHT22;27435;48.480;9.258;2023-12-14T06:21:44;5.70;99.00
41756;DHT22;27435;48.480;9.258;2023-12-14T06:24:10;5.60;99.00
41756;DHT22;27435;48.480;9.258;2023-12-14T06:26:44;5.60;99.00
41756;DHT22;27435;48.480;9.258;2023-12-14T06:29:11;5.60;99.00
41756;DHT22;27435;48.480;9.258;2023-12-14T06:31:37;5.70;99.00
41756;DHT22;27435;48.480;9.258;2023-12-14T06:34:03;5.80;99.00
41756;DHT22;27435;48.480;9.258;2023-12-14T06:36:32;5.80;99.00
41756;DHT22;27435;48.480;9.258;2023-12-14T06:38:59;5.90;99.00
41756;DHT22;27435;48.480;9.258;2023-12-14T06:41:26;6.00;99.00
41756;DHT22;27435;48.480;9.258;2023-12-14T06:43:52;6.10;99.00
41756;DHT22;27435;48.480;9.258;2023-12-14T06:46:18;6.20;99.00
41756;DHT22;27435;48.480;9.258;2023-12-14T06:48:45;6.20;99.00
41756;DHT22;27435;48.480;9.258;2023-12-14T06:51:11;6.20;99.00
41756;DHT22;27435;48.480;9.258;2023-12-14T06:53:40;6.10;99.00
41756;DHT22;27435;48.480;9.258;2023-12-14T06:56:07;6.10;99.00
41756;DHT22;27435;48.480;9.258;2023-12-14T06:58:40;6.10;99.00
41756;DHT22;27435;48.480;9.258;2023-12-14T07:01:07;6.10;99.00
41756;DHT22;27435;48.480;9.258;2023-12-14T07:03:33;6.20;99.00
41756;DHT22;27435;48.480;9.258;2023-12-14T07:05:58;6.10;99.00
41756;DHT22;27435;48.480;9.258;2023-12-14T07:08:24;6.20;99.00
41756;DHT22;27435;48.480;9.258;2023-12-14T07:10:50;6.30;99.00
41756;DHT22;27435;48.480;9.258;2023-12-14T07:13:16;6.40;99.00
41756;DHT22;27435;48.480;9.258;2023-12-14T07:15:41;6.40;99.00
41756;DHT22;27435;48.480;9.258;2023-12-14T07:18:07;6.30;99.00
41756;DHT22;27435;48.480;9.258;2023-12-14T07:20:33;6.30;99.00
41756;DHT22;27435;48.480;9.258;2023-12-14T07:22:59;6.40;99.00
41756;DHT22;27435;48.480;9.258;2023-12-14T07:25:24;6.30;99.00
41756;DHT22;27435;48.480;9.258;2023-12-14T07:27:50;6.30;99.00
41756;DHT22;27435;48.480;9.258;2023-12-14T07:30:16;6.20;99.00
41756;DHT22;27435;48.480;9.258;2023-12-14T07:32:42;6.20;99.00
41756;DHT22;27435;48.480;9.258;2023-12-14T07:35:08;6.20;99.00
41756;DHT22;27435;48.480;9.258;2023-12-14T07:37:34;6.20;99.00
41756;DHT22;27435;48.480;9.258;2023-12-14T07:39:59;6.10;99.00
41756;DHT22;27435;48.480;9.258;2023-12-14T07:42:25;6.10;99.00
41756;DHT22;27435;48.480;9.258;2023-12-14T07:44:51;6.00;99.00
41756;DHT22;27435;48.480;9.258;2023-12-14T07:47:17;6.00;99.00
41756;DHT22;27435;48.480;9.258;2023-12-14T07:49:42;5.90;99.00
41756;DHT22;27435;48.480;9.258;2023-12-14T07:52:08;5.80;99.00
41756;DHT22;27435;48.480;9.258;2023-12-14T07:54:35;5.80;99.00
41756;DHT22;27435;48.480;9.258;2023-12-14T07:57:01;5.90;99.00
41756;DHT22;27435;48.480;9.258;2023-12-14T07:59:26;6.10;99.00
41756;DHT22;27435;48.480;9.258;2023-12-14T08:01:52;6.00;99.00
41756;DHT22;27435;48.480;9.258;2023-12-14T08:04:18;6.00;99.00
41756;DHT22;27435;48.480;9.258;2023-12-14T08:06:43;6.10;99.00
41756;DHT22;27435;48.480;9.258;2023-12-14T08:09:09;6.20;99.00
41756;DHT22;27435;48.480;9.258;2023-12-14T08:11:34;6.10;99.00
41756;DHT22;27435;48.480;9.258;2023-12-14T08:14:00;6.00;99.00
41756;DHT22;27435;48.480;9.258;2023-12-14T08:16:27;6.10;99.00
41756;DHT22;27435;48.480;9.258;2023-12-14T08:18:52;6.20;99.00
41756;DHT22;27435;48.480;9.258;2023-12-14T08:21:18;6.20;99.00
41756;DHT22;27435;48.480;9.258;2023-12-14T08:23:44;6.30;99.00
41756;DHT22;27435;48.480;9.258;2023-12-14T08:26:10;6.40;99.00
41756;DHT22;27435;48.480;9.258;2023-12-14T08:28:38;6.40;99.00
41756;DHT22;27435;48.480;9.258;2023-12-14T08:31:04;6.30;99.00
41756;DHT22;27435;48.480;9.258;2023-12-14T08:33:30;6.20;99.00
41756;DHT22;27435;48.480;9.258;2023-12-14T08:35:56;6.40;99.00
41756;DHT22;27435;48.480;9.258;2023-12-14T08:38:22;6.50;99.00
41756;DHT22;27435;48.480;9.258;2023-12-14T08:40:48;6.30;99.00
41756;DHT22;27435;48.480;9.258;2023-12-14T08:43:13;6.50;99.00
41756;DHT22;27435;48.480;9.258;2023-12-14T08:45:39;6.60;99.00
41756;DHT22;27435;48.480;9.258;2023-12-14T08:48:05;6.60;99.00
41756;DHT22;27435;48.480;9.258;2023-12-14T08:50:31;6.50;99.00
41756;DHT22;27435;48.480;9.258;2023-12-14T08:52:56;6.50;99.00
41756;DHT22;27435;48.480;9.258;2023-12-14T08:55:26;6.50;99.00
41756;DHT22;27435;48.480;9.258;2023-12-14T08:57:52;6.60;99.00
41756;DHT22;27435;48.480;9.258;2023-12-14T09:00:17;6.70;99.00
41756;DHT22;27435;48.480;9.258;2023-12-14T09:02:44;6.70;99.00
41756;DHT22;27435;48.480;9.258;2023-12-14T09:05:12;6.80;99.00
41756;DHT22;27435;48.480;9.258;2023-12-14T09:07:38;6.90;99.00
41756;DHT22;27435;48.480;9.258;2023-12-14T09:10:04;7.10;99.00
41756;DHT22;27435;48.480;9.258;2023-12-14T09:12:30;7.20;99.00
41756;DHT22;27435;48.480;9.258;2023-12-14T09:14:56;7.30;99.00
41756;DHT22;27435;48.480;9.258;2023-12-14T09:17:21;7.20;99.00
41756;DHT22;27435;48.480;9.258;2023-12-14T09:19:47;7.30;99.00
41756;DHT22;27435;48.480;9.258;2023-12-14T09:22:13;7.30;99.00
41756;DHT22;27435;48.480;9.258;2023-12-14T09:24:38;7.40;99.00
41756;DHT22;27435;48.480;9.258;2023-12-14T09:27:04;7.40;99.00
41756;DHT22;27435;48.480;9.258;2023-12-14T09:29:30;7.50;99.00
41756;DHT22;27435;48.480;9.258;2023-12-14T09:31:55;7.60;99.00
41756;DHT22;27435;48.480;9.258;2023-12-14T09:34:21;7.60;99.00
41756;DHT22;27435;48.480;9.258;2023-12-14T09:36:46;7.60;99.00
41756;DHT22;27435;48.480;9.258;2023-12-14T09:39:12;7.60;99.00
41756;DHT22;27435;48.480;9.258;2023-12-14T09:41:38;7.80;99.00
41756;DHT22;27435;48.480;9.258;2023-12-14T09:44:05;7.90;99.00
41756;DHT22;27435;48.480;9.258;2023-12-14T09:46:33;8.00;99.00
41756;DHT22;27435;48.480;9.258;2023-12-14T09:49:00;8.10;99.00
41756;DHT22;27435;48.480;9.258;2023-12-14T09:51:27;8.20;99.00
41756;DHT22;27435;48.480;9.258;2023-12-14T09:53:52;8.40;99.00
41756;DHT22;27435;48.480;9.258;2023-12-14T09:56:24;8.40;99.00
41756;DHT22;27435;48.480;9.258;2023-12-14T09:58:50;8.40;99.00
41756;DHT22;27435;48.480;9.258;2023-12-14T10:01:27;8.40;99.00
41756;DHT22;27435;48.480;9.258;2023-12-14T10:04:15;8.20;99.00
41756;DHT22;27435;48.480;9.258;2023-12-14T10:06:43;8.10;99.00
41756;DHT22;27435;48.480;9.258;2023-12-14T10:09:09;8.00;99.00
41756;DHT22;27435;48.480;9.258;2023-12-14T10:11:39;8.10;99.00
41756;DHT22;27435;48.480;9.258;2023-12-14T10:14:22;8.00;99.00
41756;DHT22;27435;48.480;9.258;2023-12-14T10:16:50;7.90;99.00
41756;DHT22;27435;48.480;9.258;2023-12-14T10:19:17;7.90;99.00
41756;DHT22;27435;48.480;9.258;2023-12-14T10:21:43;7.90;99.00
41756;DHT22;27435;48.480;9.258;2023-12-14T10:24:09;7.60;99.00
41756;DHT22;27435;48.480;9.258;2023-12-14T10:26:35;7.60;99.00
41756;DHT22;27435;48.480;9.258;2023-12-14T10:29:01;7.70;99.00
41756;DHT22;27435;48.480;9.258;2023-12-14T10:31:30;7.60;99.00
41756;DHT22;27435;48.480;9.258;2023-12-14T10:33:56;7.70;99.00
41756;DHT22;27435;48.480;9.258;2023-12-14T10:36:24;7.60;99.00
41756;DHT22;27435;48.480;9.258;2023-12-14T10:38:54;7.40;99.00
41756;DHT22;27435;48.480;9.258;2023-12-14T10:41:21;7.30;99.00
41756;DHT22;27435;48.480;9.258;2023-12-14T10:43:49;7.10;99.00
41756;DHT22;27435;48.480;9.258;2023-12-14T10:46:19;7.00;99.00
41756;DHT22;27435;48.480;9.258;2023-12-14T10:48:47;6.70;99.00
41756;DHT22;27435;48.480;9.258;2023-12-14T10:51:13;6.70;99.00
41756;DHT22;27435;48.480;9.258;2023-12-14T10:53:40;6.80;99.00
41756;DHT22;27435;48.480;9.258;2023-12-14T10:56:10;7.00;99.00
41756;DHT22;27435;48.480;9.258;2023-12-14T11:01:19;6.90;99.00
41756;DHT22;27435;48.480;9.258;2023-12-14T11:03:45;7.00;99.00
41756;DHT22;27435;48.480;9.258;2023-12-14T11:06:41;7.20;99.00
41756;DHT22;27435;48.480;9.258;2023-12-14T11:09:09;7.30;99.00
41756;DHT22;27435;48.480;9.258;2023-12-14T11:14:20;7.30;99.00
41756;DHT22;27435;48.480;9.258;2023-12-14T11:16:48;7.20;99.00
41756;DHT22;27435;48.480;9.258;2023-12-14T11:24:31;7.10;99.00
41756;DHT22;27435;48.480;9.258;2023-12-14T11:26:56;7.00;99.00
41756;DHT22;27435;48.480;9.258;2023-12-14T11:29:22;7.00;99.00
41756;DHT22;27435;48.480;9.258;2023-12-14T11:31:48;7.20;99.00
41756;DHT22;27435;48.480;9.258;2023-12-14T11:34:17;7.50;99.00
41756;DHT22;27435;48.480;9.258;2023-12-14T11:36:43;7.60;99.00
41756;DHT22;27435;48.480;9.258;2023-12-14T11:39:11;7.70;99.00
41756;DHT22;27435;48.480;9.258;2023-12-14T11:41:37;7.90;99.00
41756;DHT22;27435;48.480;9.258;2023-12-14T11:44:05;7.90;99.00
41756;DHT22;27435;48.480;9.258;2023-12-14T11:46:32;7.90;99.00
41756;DHT22;27435;48.480;9.258;2023-12-14T11:48:58;7.80;99.00
41756;DHT22;27435;48.480;9.258;2023-12-14T11:51:24;8.00;99.00
41756;DHT22;27435;48.480;9.258;2023-12-14T11:53:52;8.40;99.00
41756;DHT22;27435;48.480;9.258;2023-12-14T11:56:19;8.60;99.00
41756;DHT22;27435;48.480;9.258;2023-12-14T11:58:45;8.60;99.00
41756;DHT22;27435;48.480;9.258;2023-12-14T12:01:19;8.60;99.00
41756;DHT22;27435;48.480;9.258;2023-12-14T12:03:50;8.70;99.00
41756;DHT22;27435;48.480;9.258;2023-12-14T12:06:22;8.80;99.00
41756;DHT22;27435;48.480;9.258;2023-12-14T12:08:48;9.00;99.00
41756;DHT22;27435;48.480;9.258;2023-12-14T12:11:18;9.00;99.00
41756;DHT22;27435;48.480;9.258;2023-12-14T12:13:43;8.80;99.00
41756;DHT22;27435;48.480;9.258;2023-12-14T12:16:09;8.70;99.00
41756;DHT22;27435;48.480;9.258;2023-12-14T12:18:35;8.70;99.00
41756;DHT22;27435;48.480;9.258;2023-12-14T12:21:00;8.50;99.00
41756;DHT22;27435;48.480;9.258;2023-12-14T12:23:29;8.50;99.00
41756;DHT22;27435;48.480;9.258;2023-12-14T12:25:55;8.60;99.00
41756;DHT22;27435;48.480;9.258;2023-12-14T12:28:21;8.40;99.00
41756;DHT22;27435;48.480;9.258;2023-12-14T12:30:47;8.40;99.00
41756;DHT22;27435;48.480;9.258;2023-12-14T12:33:13;8.20;99.00
41756;DHT22;27435;48.480;9.258;2023-12-14T12:35:38;8.00;99.00
41756;DHT22;27435;48.480;9.258;2023-12-14T12:38:04;8.10;99.00
41756;DHT22;27435;48.480;9.258;2023-12-14T12:40:30;8.10;99.00
41756;DHT22;27435;48.480;9.258;2023-12-14T12:42:56;8.00;99.00
41756;DHT22;27435;48.480;9.258;2023-12-14T12:45:22;8.00;99.00
41756;DHT22;27435;48.480;9.258;2023-12-14T12:47:51;8.00;99.00
41756;DHT22;27435;48.480;9.258;2023-12-14T12:50:16;7.80;99.00
41756;DHT22;27435;48.480;9.258;2023-12-14T12:52:42;7.60;99.00
41756;DHT22;27435;48.480;9.258;2023-12-14T12:55:09;7.40;99.00
41756;DHT22;27435;48.480;9.258;2023-12-14T12:57:35;7.10;99.00
41756;DHT22;27435;48.480;9.258;2023-12-14T13:00:01;6.80;99.00
41756;DHT22;27435;48.480;9.258;2023-12-14T13:02:29;6.50;99.00
41756;DHT22;27435;48.480;9.258;2023-12-14T13:04:54;6.30;99.00
41756;DHT22;27435;48.480;9.258;2023-12-14T13:07:20;6.40;99.00
41756;DHT22;27435;48.480;9.258;2023-12-14T13:09:46;6.50;99.00
41756;DHT22;27435;48.480;9.258;2023-12-14T13:12:11;6.60;99.00
41756;DHT22;27435;48.480;9.258;2023-12-14T13:14:37;6.70;99.00
41756;DHT22;27435;48.480;9.258;2023-12-14T13:17:03;6.80;99.00
41756;DHT22;27435;48.480;9.258;2023-12-14T13:19:28;6.90;99.00
41756;DHT22;27435;48.480;9.258;2023-12-14T13:21:54;6.90;99.00
41756;DHT22;27435;48.480;9.258;2023-12-14T13:24:23;6.90;99.00
41756;DHT22;27435;48.480;9.258;2023-12-14T13:26:48;6.90;99.00
41756;DHT22;27435;48.480;9.258;2023-12-14T13:29:14;6.80;99.00
41756;DHT22;27435;48.480;9.258;2023-12-14T13:31:40;6.70;99.00
41756;DHT22;27435;48.480;9.258;2023-12-14T13:34:05;6.60;99.00
41756;DHT22;27435;48.480;9.258;2023-12-14T13:36:31;6.60;99.00
41756;DHT22;27435;48.480;9.258;2023-12-14T13:38:57;6.80;99.00
41756;DHT22;27435;48.480;9.258;2023-12-14T13:41:23;6.90;99.00
41756;DHT22;27435;48.480;9.258;2023-12-14T13:43:49;6.90;99.00
41756;DHT22;27435;48.480;9.258;2023-12-14T13:46:17;7.00;99.00
41756;DHT22;27435;48.480;9.258;2023-12-14T13:48:43;7.10;99.00
41756;DHT22;27435;48.480;9.258;2023-12-14T13:51:08;7.20;99.00
41756;DHT22;27435;48.480;9.258;2023-12-14T13:53:34;7.20;99.00
41756;DHT22;27435;48.480;9.258;2023-12-14T13:55:59;7.20;99.00
41756;DHT22;27435;48.480;9.258;2023-12-14T13:58:25;7.20;99.00
41756;DHT22;27435;48.480;9.258;2023-12-14T14:00:51;7.30;99.00
41756;DHT22;27435;48.480;9.258;2023-12-14T14:03:16;7.30;99.00
41756;DHT22;27435;48.480;9.258;2023-12-14T14:05:42;7.20;99.00
41756;DHT22;27435;48.480;9.258;2023-12-14T14:08:10;7.20;99.00
41756;DHT22;27435;48.480;9.258;2023-12-14T14:10:36;7.10;99.00
41756;DHT22;27435;48.480;9.258;2023-12-14T14:13:02;7.10;99.00
41756;DHT22;27435;48.480;9.258;2023-12-14T14:15:28;7.00;99.00
41756;DHT22;27435;48.480;9.258;2023-12-14T14:17:53;6.90;99.00
41756;DHT22;27435;48.480;9.258;2023-12-14T14:20:20;7.00;99.00
41756;DHT22;27435;48.480;9.258;2023-12-14T14:22:45;7.00;99.00
41756;DHT22;27435;48.480;9.258;2023-12-14T14:25:11;7.00;99.00
41756;DHT22;27435;48.480;9.258;2023-12-14T14:27:37;6.90;99.00
41756;DHT22;27435;48.480;9.258;2023-12-14T14:30:03;6.90;99.00
41756;DHT22;27435;48.480;9.258;2023-12-14T14:32:29;7.00;99.00
41756;DHT22;27435;48.480;9.258;2023-12-14T14:34:57;7.20;99.00
41756;DHT22;27435;48.480;9.258;2023-12-14T14:37:24;7.20;99.00
41756;DHT22;27435;48.480;9.258;2023-12-14T14:39:50;7.10;99.00
41756;DHT22;27435;48.480;9.258;2023-12-14T14:42:15;7.20;99.00
41756;DHT22;27435;48.480;9.258;2023-12-14T14:44:41;7.10;99.00
41756;DHT22;27435;48.480;9.258;2023-12-14T14:47:07;7.10;99.00
41756;DHT22;27435;48.480;9.258;2023-12-14T14:49:32;6.90;99.00
41756;DHT22;27435;48.480;9.258;2023-12-14T14:51:58;6.80;99.00
41756;DHT22;27435;48.480;9.258;2023-12-14T14:54:24;6.10;99.00
41756;DHT22;27435;48.480;9.258;2023-12-14T14:56:49;5.70;99.00
41756;DHT22;27435;48.480;9.258;2023-12-14T14:59:15;5.50;99.00
41756;DHT22;27435;48.480;9.258;2023-12-14T15:01:41;5.40;99.00
41756;DHT22;27435;48.480;9.258;2023-12-14T15:04:07;5.50;99.00
41756;DHT22;27435;48.480;9.258;2023-12-14T15:06:33;5.40;99.00
41756;DHT22;27435;48.480;9.258;2023-12-14T15:08:59;5.40;99.00
41756;DHT22;27435;48.480;9.258;2023-12-14T15:11:25;5.60;99.00
41756;DHT22;27435;48.480;9.258;2023-12-14T15:13:51;5.70;99.00
41756;DHT22;27435;48.480;9.258;2023-12-14T15:16:17;5.80;99.00
41756;DHT22;27435;48.480;9.258;2023-12-14T15:18:43;6.10;99.00
41756;DHT22;27435;48.480;9.258;2023-12-14T15:21:09;6.10;99.00
41756;DHT22;27435;48.480;9.258;2023-12-14T15:23:35;6.00;99.00
41756;DHT22;27435;48.480;9.258;2023-12-14T15:26:01;5.80;99.00
41756;DHT22;27435;48.480;9.258;2023-12-14T15:28:26;5.70;99.00
41756;DHT22;27435;48.480;9.258;2023-12-14T15:30:52;5.60;99.00
41756;DHT22;27435;48.480;9.258;2023-12-14T15:33:18;5.70;99.00
41756;DHT22;27435;48.480;9.258;2023-12-14T15:35:43;5.60;99.00
41756;DHT22;27435;48.480;9.258;2023-12-14T15:38:09;5.70;99.00
41756;DHT22;27435;48.480;9.258;2023-12-14T15:40:35;5.70;99.00
41756;DHT22;27435;48.480;9.258;2023-12-14T15:43:06;5.80;99.00
41756;DHT22;27435;48.480;9.258;2023-12-14T15:45:32;5.70;99.00
41756;DHT22;27435;48.480;9.258;2023-12-14T15:48:00;5.70;99.00
41756;DHT22;27435;48.480;9.258;2023-12-14T15:50:26;5.80;99.00